sensor_id;sensor_type;location;lat;lon;timestamp;P1;durP1;ratioP1;P2;durP2;ratioP2
8610;SDS011;4343;53.648;10.098;2024-01-15T00:01:26;3.83;;;1.40;;
8610;SDS011;4343;53.648;10.098;2024-01-15T00:03:51;3.97;;;1.73;;
8610;SDS011;4343;53.648;10.098;2024-01-15T00:06:17;5.70;;;1.80;;
8610;SDS011;4343;53.648;10.098;2024-01-15T00:08:42;7.60;;;2.50;;
8610;SDS011;4343;53.648;10.098;2024-01-15T00:11:08;7.30;;;1.87;;
8610;SDS011;4343;53.648;10.098;2024-01-15T00:13:33;4.80;;;1.77;;
8610;SDS011;4343;53.648;10.098;2024-01-15T00:15:59;6.53;;;2.00;;
8610;SDS011;4343;53.648;10.098;2024-01-15T00:18:25;4.67;;;1.43;;
8610;SDS011;4343;53.648;10.098;2024-01-15T00:20:50;6.33;;;2.40;;
8610;SDS011;4343;53.648;10.098;2024-01-15T00:23:15;3.17;;;2.10;;
8610;SDS011;4343;53.648;10.098;2024-01-15T00:25:41;7.60;;;1.73;;
8610;SDS011;4343;53.648;10.098;2024-01-15T00:28:07;6.60;;;1.90;;
8610;SDS011;4343;53.648;10.098;2024-01-15T00:30:32;6.47;;;2.40;;
8610;SDS011;4343;53.648;10.098;2024-01-15T00:32:58;7.03;;;1.87;;
8610;SDS011;4343;53.648;10.098;2024-01-15T00:35:23;6.80;;;2.40;;
8610;SDS011;4343;53.648;10.098;2024-01-15T00:37:49;11.17;;;3.30;;
8610;SDS011;4343;53.648;10.098;2024-01-15T00:40:14;2.60;;;1.97;;
8610;SDS011;4343;53.648;10.098;2024-01-15T00:42:40;12.13;;;2.53;;
8610;SDS011;4343;53.648;10.098;2024-01-15T00:45:05;5.33;;;2.17;;
8610;SDS011;4343;53.648;10.098;2024-01-15T00:47:32;6.20;;;3.37;;
8610;SDS011;4343;53.648;10.098;2024-01-15T00:49:58;12.30;;;2.27;;
8610;SDS011;4343;53.648;10.098;2024-01-15T00:52:24;10.80;;;2.40;;
8610;SDS011;4343;53.648;10.098;2024-01-15T00:54:49;13.43;;;2.70;;
8610;SDS011;4343;53.648;10.098;2024-01-15T00:57:15;9.60;;;2.37;;
8610;SDS011;4343;53.648;10.098;2024-01-15T00:59:41;9.60;;;2.40;;
8610;SDS011;4343;53.648;10.098;2024-01-15T01:02:06;7.37;;;2.23;;
8610;SDS011;4343;53.648;10.098;2024-01-15T01:04:32;7.20;;;2.33;;
8610;SDS011;4343;53.648;10.098;2024-01-15T01:06:57;8.13;;;2.47;;
8610;SDS011;4343;53.648;10.098;2024-01-15T01:09:23;8.63;;;2.43;;
8610;SDS011;4343;53.648;10.098;2024-01-15T01:11:49;6.93;;;2.80;;
8610;SDS011;4343;53.648;10.098;2024-01-15T01:14:15;7.20;;;2.03;;
8610;SDS011;4343;53.648;10.098;2024-01-15T01:16:40;22.07;;;2.97;;
8610;SDS011;4343;53.648;10.098;2024-01-15T01:19:06;8.63;;;3.27;;
8610;SDS011;4343;53.648;10.098;2024-01-15T01:21:32;6.93;;;2.17;;
8610;SDS011;4343;53.648;10.098;2024-01-15T01:23:58;10.10;;;2.63;;
8610;SDS011;4343;53.648;10.098;2024-01-15T01:26:24;8.27;;;2.27;;
8610;SDS011;4343;53.648;10.098;2024-01-15T01:28:49;8.03;;;2.60;;
8610;SDS011;4343;53.648;10.098;2024-01-15T01:31:15;14.20;;;2.83;;
8610;SDS011;4343;53.648;10.098;2024-01-15T01:33:41;11.07;;;3.10;;
8610;SDS011;4343;53.648;10.098;2024-01-15T01:36:07;4.97;;;2.60;;
8610;SDS011;4343;53.648;10.098;2024-01-15T01:38:34;11.50;;;2.47;;
8610;SDS011;4343;53.648;10.098;2024-01-15T01:41:00;7.10;;;2.97;;
8610;SDS011;4343;53.648;10.098;2024-01-15T01:43:25;7.03;;;1.90;;
8610;SDS011;4343;53.648;10.098;2024-01-15T01:45:51;9.20;;;2.27;;
8610;SDS011;4343;53.648;10.098;2024-01-15T01:48:17;9.43;;;1.93;;
8610;SDS011;4343;53.648;10.098;2024-01-15T01:50:42;10.03;;;2.40;;
8610;SDS011;4343;53.648;10.098;2024-01-15T01:53:09;5.20;;;2.20;;
8610;SDS011;4343;53.648;10.098;2024-01-15T01:55:35;5.57;;;1.70;;
8610;SDS011;4343;53.648;10.098;2024-01-15T01:58:02;5.40;;;2.80;;
8610;SDS011;4343;53.648;10.098;2024-01-15T02:00:28;8.13;;;2.60;;
8610;SDS011;4343;53.648;10.098;2024-01-15T02:02:57;10.17;;;2.17;;
8610;SDS011;4343;53.648;10.098;2024-01-15T02:05:22;5.70;;;2.30;;
8610;SDS011;4343;53.648;10.098;2024-01-15T02:07:48;12.73;;;2.33;;
8610;SDS011;4343;53.648;10.098;2024-01-15T02:10:14;9.80;;;2.27;;
8610;SDS011;4343;53.648;10.098;2024-01-15T02:12:39;8.00;;;2.60;;
8610;SDS011;4343;53.648;10.098;2024-01-15T02:15:05;10.47;;;2.40;;
8610;SDS011;4343;53.648;10.098;2024-01-15T02:17:31;10.97;;;2.40;;
8610;SDS011;4343;53.648;10.098;2024-01-15T02:19:56;6.70;;;2.47;;
8610;SDS011;4343;53.648;10.098;2024-01-15T02:22:22;7.60;;;1.90;;
8610;SDS011;4343;53.648;10.098;2024-01-15T02:24:47;8.63;;;2.13;;
8610;SDS011;4343;53.648;10.098;2024-01-15T02:27:13;5.97;;;2.57;;
8610;SDS011;4343;53.648;10.098;2024-01-15T02:29:39;6.17;;;2.10;;
8610;SDS011;4343;53.648;10.098;2024-01-15T02:32:05;6.73;;;2.17;;
8610;SDS011;4343;53.648;10.098;2024-01-15T02:34:32;6.47;;;1.93;;
8610;SDS011;4343;53.648;10.098;2024-01-15T02:36:58;10.53;;;2.20;;
8610;SDS011;4343;53.648;10.098;2024-01-15T02:39:23;6.27;;;2.67;;
8610;SDS011;4343;53.648;10.098;2024-01-15T02:41:49;10.07;;;2.33;;
8610;SDS011;4343;53.648;10.098;2024-01-15T02:44:14;8.27;;;1.83;;
8610;SDS011;4343;53.648;10.098;2024-01-15T02:46:40;5.67;;;2.00;;
8610;SDS011;4343;53.648;10.098;2024-01-15T02:49:05;8.53;;;2.30;;
8610;SDS011;4343;53.648;10.098;2024-01-15T02:51:31;5.00;;;2.20;;
8610;SDS011;4343;53.648;10.098;2024-01-15T02:53:56;6.87;;;2.57;;
8610;SDS011;4343;53.648;10.098;2024-01-15T02:56:22;9.90;;;2.60;;
8610;SDS011;4343;53.648;10.098;2024-01-15T02:58:47;7.20;;;2.90;;
8610;SDS011;4343;53.648;10.098;2024-01-15T03:01:13;6.90;;;1.87;;
8610;SDS011;4343;53.648;10.098;2024-01-15T03:03:39;7.80;;;3.30;;
8610;SDS011;4343;53.648;10.098;2024-01-15T03:06:05;9.87;;;3.40;;
8610;SDS011;4343;53.648;10.098;2024-01-15T03:08:31;4.83;;;2.33;;
8610;SDS011;4343;53.648;10.098;2024-01-15T03:10:56;6.80;;;2.80;;
8610;SDS011;4343;53.648;10.098;2024-01-15T03:13:22;7.43;;;2.93;;
8610;SDS011;4343;53.648;10.098;2024-01-15T03:15:47;7.03;;;2.70;;
8610;SDS011;4343;53.648;10.098;2024-01-15T03:18:13;7.23;;;2.40;;
8610;SDS011;4343;53.648;10.098;2024-01-15T03:20:38;8.33;;;2.40;;
8610;SDS011;4343;53.648;10.098;2024-01-15T03:23:04;5.93;;;2.77;;
8610;SDS011;4343;53.648;10.098;2024-01-15T03:25:29;7.43;;;2.47;;
8610;SDS011;4343;53.648;10.098;2024-01-15T03:27:55;6.53;;;2.40;;
8610;SDS011;4343;53.648;10.098;2024-01-15T03:30:20;11.07;;;2.73;;
8610;SDS011;4343;53.648;10.098;2024-01-15T03:32:46;11.10;;;2.77;;
8610;SDS011;4343;53.648;10.098;2024-01-15T03:35:12;8.57;;;2.70;;
8610;SDS011;4343;53.648;10.098;2024-01-15T03:37:38;11.63;;;3.40;;
8610;SDS011;4343;53.648;10.098;2024-01-15T03:40:03;9.70;;;2.90;;
8610;SDS011;4343;53.648;10.098;2024-01-15T03:42:29;9.73;;;3.03;;
8610;SDS011;4343;53.648;10.098;2024-01-15T03:44:55;9.50;;;2.83;;
8610;SDS011;4343;53.648;10.098;2024-01-15T03:47:20;12.83;;;2.53;;
8610;SDS011;4343;53.648;10.098;2024-01-15T03:49:46;6.77;;;2.50;;
8610;SDS011;4343;53.648;10.098;2024-01-15T03:52:11;7.37;;;2.30;;
8610;SDS011;4343;53.648;10.098;2024-01-15T03:54:37;10.27;;;3.23;;
8610;SDS011;4343;53.648;10.098;2024-01-15T03:57:03;6.13;;;2.60;;
8610;SDS011;4343;53.648;10.098;2024-01-15T03:59:28;10.13;;;3.33;;
8610;SDS011;4343;53.648;10.098;2024-01-15T04:01:54;8.80;;;2.50;;
8610;SDS011;4343;53.648;10.098;2024-01-15T04:04:19;6.27;;;2.40;;
8610;SDS011;4343;53.648;10.098;2024-01-15T04:06:45;10.93;;;2.60;;
8610;SDS011;4343;53.648;10.098;2024-01-15T04:09:12;7.53;;;2.60;;
8610;SDS011;4343;53.648;10.098;2024-01-15T04:11:38;12.73;;;2.90;;
8610;SDS011;4343;53.648;10.098;2024-01-15T04:14:04;12.67;;;3.13;;
8610;SDS011;4343;53.648;10.098;2024-01-15T04:16:30;12.00;;;2.97;;
8610;SDS011;4343;53.648;10.098;2024-01-15T04:18:56;9.17;;;2.83;;
8610;SDS011;4343;53.648;10.098;2024-01-15T04:21:21;10.80;;;3.23;;
8610;SDS011;4343;53.648;10.098;2024-01-15T04:23:47;16.07;;;3.77;;
8610;SDS011;4343;53.648;10.098;2024-01-15T04:26:12;10.20;;;2.37;;
8610;SDS011;4343;53.648;10.098;2024-01-15T04:28:38;10.37;;;3.27;;
8610;SDS011;4343;53.648;10.098;2024-01-15T04:31:03;8.40;;;2.50;;
8610;SDS011;4343;53.648;10.098;2024-01-15T04:33:29;8.40;;;2.57;;
8610;SDS011;4343;53.648;10.098;2024-01-15T04:35:54;11.27;;;2.57;;
8610;SDS011;4343;53.648;10.098;2024-01-15T04:38:20;10.93;;;3.23;;
8610;SDS011;4343;53.648;10.098;2024-01-15T04:40:45;9.17;;;2.60;;
8610;SDS011;4343;53.648;10.098;2024-01-15T04:43:11;9.67;;;3.33;;
8610;SDS011;4343;53.648;10.098;2024-01-15T04:45:36;10.23;;;3.40;;
8610;SDS011;4343;53.648;10.098;2024-01-15T04:48:02;8.83;;;2.70;;
8610;SDS011;4343;53.648;10.098;2024-01-15T04:50:28;12.60;;;3.00;;
8610;SDS011;4343;53.648;10.098;2024-01-15T04:52:53;11.63;;;2.90;;
8610;SDS011;4343;53.648;10.098;2024-01-15T04:55:19;8.57;;;2.23;;
8610;SDS011;4343;53.648;10.098;2024-01-15T04:57:44;7.70;;;2.63;;
8610;SDS011;4343;53.648;10.098;2024-01-15T05:00:10;18.43;;;3.83;;
8610;SDS011;4343;53.648;10.098;2024-01-15T05:02:37;14.53;;;2.77;;
8610;SDS011;4343;53.648;10.098;2024-01-15T05:05:02;11.53;;;2.53;;
8610;SDS011;4343;53.648;10.098;2024-01-15T05:07:28;10.73;;;3.23;;
8610;SDS011;4343;53.648;10.098;2024-01-15T05:09:54;13.03;;;3.20;;
8610;SDS011;4343;53.648;10.098;2024-01-15T05:12:19;13.07;;;3.07;;
8610;SDS011;4343;53.648;10.098;2024-01-15T05:14:45;12.10;;;3.17;;
8610;SDS011;4343;53.648;10.098;2024-01-15T05:17:10;12.13;;;3.13;;
8610;SDS011;4343;53.648;10.098;2024-01-15T05:19:36;8.83;;;3.10;;
8610;SDS011;4343;53.648;10.098;2024-01-15T05:22:01;18.93;;;3.93;;
8610;SDS011;4343;53.648;10.098;2024-01-15T05:24:27;17.77;;;3.60;;
8610;SDS011;4343;53.648;10.098;2024-01-15T05:26:52;20.47;;;4.33;;
8610;SDS011;4343;53.648;10.098;2024-01-15T05:29:18;12.40;;;3.40;;
8610;SDS011;4343;53.648;10.098;2024-01-15T05:31:43;18.97;;;4.37;;
8610;SDS011;4343;53.648;10.098;2024-01-15T05:34:09;15.40;;;3.03;;
8610;SDS011;4343;53.648;10.098;2024-01-15T05:36:34;13.57;;;4.70;;
8610;SDS011;4343;53.648;10.098;2024-01-15T05:39:00;18.43;;;4.10;;
8610;SDS011;4343;53.648;10.098;2024-01-15T05:41:25;18.30;;;4.00;;
8610;SDS011;4343;53.648;10.098;2024-01-15T05:43:51;21.23;;;4.17;;
8610;SDS011;4343;53.648;10.098;2024-01-15T05:46:17;16.23;;;3.90;;
8610;SDS011;4343;53.648;10.098;2024-01-15T05:48:42;17.90;;;3.53;;
8610;SDS011;4343;53.648;10.098;2024-01-15T05:51:08;14.83;;;3.67;;
8610;SDS011;4343;53.648;10.098;2024-01-15T05:53:33;19.93;;;3.73;;
8610;SDS011;4343;53.648;10.098;2024-01-15T05:55:59;16.97;;;3.53;;
8610;SDS011;4343;53.648;10.098;2024-01-15T05:58:26;14.37;;;5.13;;
8610;SDS011;4343;53.648;10.098;2024-01-15T06:00:51;17.93;;;4.40;;
8610;SDS011;4343;53.648;10.098;2024-01-15T06:03:17;20.83;;;4.03;;
8610;SDS011;4343;53.648;10.098;2024-01-15T06:05:42;14.40;;;4.53;;
8610;SDS011;4343;53.648;10.098;2024-01-15T06:08:08;18.67;;;3.60;;
8610;SDS011;4343;53.648;10.098;2024-01-15T06:10:34;12.93;;;3.83;;
8610;SDS011;4343;53.648;10.098;2024-01-15T06:13:00;14.30;;;3.13;;
8610;SDS011;4343;53.648;10.098;2024-01-15T06:15:26;14.23;;;3.83;;
8610;SDS011;4343;53.648;10.098;2024-01-15T06:17:51;15.13;;;4.50;;
8610;SDS011;4343;53.648;10.098;2024-01-15T06:20:17;13.80;;;3.77;;
8610;SDS011;4343;53.648;10.098;2024-01-15T06:22:43;14.70;;;4.23;;
8610;SDS011;4343;53.648;10.098;2024-01-15T06:25:08;19.97;;;3.50;;
8610;SDS011;4343;53.648;10.098;2024-01-15T06:27:34;12.87;;;3.07;;
8610;SDS011;4343;53.648;10.098;2024-01-15T06:29:59;14.83;;;3.60;;
8610;SDS011;4343;53.648;10.098;2024-01-15T06:32:25;11.00;;;3.57;;
8610;SDS011;4343;53.648;10.098;2024-01-15T06:34:50;10.97;;;2.80;;
8610;SDS011;4343;53.648;10.098;2024-01-15T06:37:16;11.30;;;3.40;;
8610;SDS011;4343;53.648;10.098;2024-01-15T06:39:43;13.83;;;3.10;;
8610;SDS011;4343;53.648;10.098;2024-01-15T06:42:09;9.33;;;2.90;;
8610;SDS011;4343;53.648;10.098;2024-01-15T06:44:35;11.57;;;2.70;;
8610;SDS011;4343;53.648;10.098;2024-01-15T06:47:00;12.20;;;2.70;;
8610;SDS011;4343;53.648;10.098;2024-01-15T06:49:28;16.97;;;3.40;;
8610;SDS011;4343;53.648;10.098;2024-01-15T06:51:54;14.33;;;3.07;;
8610;SDS011;4343;53.648;10.098;2024-01-15T06:54:20;17.10;;;3.30;;
8610;SDS011;4343;53.648;10.098;2024-01-15T06:56:45;11.17;;;2.93;;
8610;SDS011;4343;53.648;10.098;2024-01-15T06:59:11;9.40;;;2.30;;
8610;SDS011;4343;53.648;10.098;2024-01-15T07:01:37;11.83;;;2.53;;
8610;SDS011;4343;53.648;10.098;2024-01-15T07:04:02;8.43;;;2.10;;
8610;SDS011;4343;53.648;10.098;2024-01-15T07:06:28;8.03;;;2.17;;
8610;SDS011;4343;53.648;10.098;2024-01-15T07:08:55;8.67;;;1.83;;
8610;SDS011;4343;53.648;10.098;2024-01-15T07:11:21;8.03;;;2.43;;
8610;SDS011;4343;53.648;10.098;2024-01-15T07:13:46;5.20;;;2.40;;
8610;SDS011;4343;53.648;10.098;2024-01-15T07:16:12;10.07;;;2.17;;
8610;SDS011;4343;53.648;10.098;2024-01-15T07:18:37;4.87;;;1.50;;
8610;SDS011;4343;53.648;10.098;2024-01-15T07:21:03;6.37;;;1.77;;
8610;SDS011;4343;53.648;10.098;2024-01-15T07:23:30;4.07;;;1.90;;
8610;SDS011;4343;53.648;10.098;2024-01-15T07:25:56;5.40;;;1.60;;
8610;SDS011;4343;53.648;10.098;2024-01-15T07:28:22;4.67;;;1.70;;
8610;SDS011;4343;53.648;10.098;2024-01-15T07:30:47;6.67;;;1.93;;
8610;SDS011;4343;53.648;10.098;2024-01-15T07:33:13;6.33;;;1.70;;
8610;SDS011;4343;53.648;10.098;2024-01-15T07:35:38;5.60;;;1.80;;
8610;SDS011;4343;53.648;10.098;2024-01-15T07:38:04;7.20;;;2.33;;
8610;SDS011;4343;53.648;10.098;2024-01-15T07:40:29;9.20;;;2.27;;
8610;SDS011;4343;53.648;10.098;2024-01-15T07:42:55;6.63;;;2.83;;
8610;SDS011;4343;53.648;10.098;2024-01-15T07:45:20;6.77;;;2.23;;
8610;SDS011;4343;53.648;10.098;2024-01-15T07:47:46;5.20;;;2.40;;
8610;SDS011;4343;53.648;10.098;2024-01-15T07:50:12;4.67;;;1.90;;
8610;SDS011;4343;53.648;10.098;2024-01-15T07:52:38;6.03;;;2.90;;
8610;SDS011;4343;53.648;10.098;2024-01-15T07:55:06;3.07;;;1.80;;
8610;SDS011;4343;53.648;10.098;2024-01-15T07:57:32;2.70;;;1.53;;
8610;SDS011;4343;53.648;10.098;2024-01-15T07:59:58;4.40;;;1.70;;
8610;SDS011;4343;53.648;10.098;2024-01-15T08:02:24;4.00;;;1.53;;
8610;SDS011;4343;53.648;10.098;2024-01-15T08:04:49;7.17;;;1.83;;
8610;SDS011;4343;53.648;10.098;2024-01-15T08:07:15;3.77;;;1.60;;
8610;SDS011;4343;53.648;10.098;2024-01-15T08:09:40;4.23;;;1.80;;
8610;SDS011;4343;53.648;10.098;2024-01-15T08:12:06;7.10;;;1.60;;
8610;SDS011;4343;53.648;10.098;2024-01-15T08:14:32;5.47;;;1.60;;
8610;SDS011;4343;53.648;10.098;2024-01-15T08:16:58;4.83;;;1.40;;
8610;SDS011;4343;53.648;10.098;2024-01-15T08:19:23;1.77;;;1.17;;
8610;SDS011;4343;53.648;10.098;2024-01-15T08:21:49;4.80;;;1.50;;
8610;SDS011;4343;53.648;10.098;2024-01-15T08:24:15;3.27;;;1.57;;
8610;SDS011;4343;53.648;10.098;2024-01-15T08:26:41;5.20;;;2.13;;
8610;SDS011;4343;53.648;10.098;2024-01-15T08:29:07;5.50;;;1.80;;
8610;SDS011;4343;53.648;10.098;2024-01-15T08:31:32;3.50;;;1.50;;
8610;SDS011;4343;53.648;10.098;2024-01-15T08:33:58;10.17;;;2.87;;
8610;SDS011;4343;53.648;10.098;2024-01-15T08:36:24;7.07;;;1.90;;
8610;SDS011;4343;53.648;10.098;2024-01-15T08:38:50;2.33;;;1.67;;
8610;SDS011;4343;53.648;10.098;2024-01-15T08:41:15;5.83;;;2.20;;
8610;SDS011;4343;53.648;10.098;2024-01-15T08:43:41;5.17;;;2.00;;
8610;SDS011;4343;53.648;10.098;2024-01-15T08:46:07;7.23;;;1.80;;
8610;SDS011;4343;53.648;10.098;2024-01-15T08:48:32;6.57;;;2.10;;
8610;SDS011;4343;53.648;10.098;2024-01-15T08:50:58;10.47;;;2.47;;
8610;SDS011;4343;53.648;10.098;2024-01-15T08:53:23;6.03;;;2.53;;
8610;SDS011;4343;53.648;10.098;2024-01-15T08:55:49;5.30;;;2.20;;
8610;SDS011;4343;53.648;10.098;2024-01-15T08:58:15;5.17;;;1.70;;
8610;SDS011;4343;53.648;10.098;2024-01-15T09:00:40;4.03;;;1.93;;
8610;SDS011;4343;53.648;10.098;2024-01-15T09:03:06;8.20;;;2.40;;
8610;SDS011;4343;53.648;10.098;2024-01-15T09:05:33;8.97;;;2.20;;
8610;SDS011;4343;53.648;10.098;2024-01-15T09:07:59;6.40;;;1.90;;
8610;SDS011;4343;53.648;10.098;2024-01-15T09:10:24;4.00;;;1.67;;
8610;SDS011;4343;53.648;10.098;2024-01-15T09:12:50;3.90;;;1.80;;
8610;SDS011;4343;53.648;10.098;2024-01-15T09:15:16;7.27;;;1.97;;
8610;SDS011;4343;53.648;10.098;2024-01-15T09:17:41;3.87;;;1.60;;
8610;SDS011;4343;53.648;10.098;2024-01-15T09:20:08;3.83;;;1.60;;
8610;SDS011;4343;53.648;10.098;2024-01-15T09:22:34;6.40;;;2.07;;
8610;SDS011;4343;53.648;10.098;2024-01-15T09:25:00;5.73;;;2.10;;
8610;SDS011;4343;53.648;10.098;2024-01-15T09:27:26;3.70;;;1.70;;
8610;SDS011;4343;53.648;10.098;2024-01-15T09:29:54;4.33;;;2.77;;
8610;SDS011;4343;53.648;10.098;2024-01-15T09:32:20;3.70;;;2.00;;
8610;SDS011;4343;53.648;10.098;2024-01-15T09:34:46;6.77;;;2.13;;
8610;SDS011;4343;53.648;10.098;2024-01-15T09:37:12;4.27;;;1.90;;
8610;SDS011;4343;53.648;10.098;2024-01-15T09:39:39;3.60;;;1.80;;
8610;SDS011;4343;53.648;10.098;2024-01-15T09:42:04;6.10;;;2.07;;
8610;SDS011;4343;53.648;10.098;2024-01-15T09:44:30;2.90;;;1.63;;
8610;SDS011;4343;53.648;10.098;2024-01-15T09:46:57;5.53;;;2.30;;
8610;SDS011;4343;53.648;10.098;2024-01-15T09:49:23;7.73;;;2.00;;
8610;SDS011;4343;53.648;10.098;2024-01-15T09:51:49;4.87;;;1.60;;
8610;SDS011;4343;53.648;10.098;2024-01-15T09:54:15;6.97;;;1.90;;
8610;SDS011;4343;53.648;10.098;2024-01-15T09:56:42;4.23;;;1.50;;
8610;SDS011;4343;53.648;10.098;2024-01-15T09:59:13;5.63;;;1.90;;
8610;SDS011;4343;53.648;10.098;2024-01-15T10:01:40;5.20;;;1.90;;
8610;SDS011;4343;53.648;10.098;2024-01-15T10:04:06;6.10;;;1.77;;
8610;SDS011;4343;53.648;10.098;2024-01-15T10:06:32;7.97;;;1.70;;
8610;SDS011;4343;53.648;10.098;2024-01-15T10:08:58;3.27;;;1.83;;
8610;SDS011;4343;53.648;10.098;2024-01-15T10:11:24;8.47;;;2.33;;
8610;SDS011;4343;53.648;10.098;2024-01-15T10:13:50;7.07;;;1.93;;
8610;SDS011;4343;53.648;10.098;2024-01-15T10:16:18;4.97;;;2.33;;
8610;SDS011;4343;53.648;10.098;2024-01-15T10:18:44;7.63;;;2.33;;
8610;SDS011;4343;53.648;10.098;2024-01-15T10:21:09;8.10;;;2.47;;
8610;SDS011;4343;53.648;10.098;2024-01-15T10:23:35;3.87;;;1.90;;
8610;SDS011;4343;53.648;10.098;2024-01-15T10:26:01;4.80;;;2.30;;
8610;SDS011;4343;53.648;10.098;2024-01-15T10:28:27;7.80;;;1.70;;
8610;SDS011;4343;53.648;10.098;2024-01-15T10:30:55;5.27;;;2.33;;
8610;SDS011;4343;53.648;10.098;2024-01-15T10:33:22;7.07;;;3.50;;
8610;SDS011;4343;53.648;10.098;2024-01-15T10:35:55;4.83;;;1.90;;
8610;SDS011;4343;53.648;10.098;2024-01-15T10:38:22;2.40;;;1.70;;
8610;SDS011;4343;53.648;10.098;2024-01-15T10:40:52;6.93;;;1.93;;
8610;SDS011;4343;53.648;10.098;2024-01-15T10:43:19;7.07;;;2.10;;
8610;SDS011;4343;53.648;10.098;2024-01-15T10:45:45;4.67;;;2.40;;
8610;SDS011;4343;53.648;10.098;2024-01-15T10:48:11;3.10;;;1.73;;
8610;SDS011;4343;53.648;10.098;2024-01-15T10:50:37;7.37;;;1.83;;
8610;SDS011;4343;53.648;10.098;2024-01-15T10:53:04;9.70;;;2.40;;
8610;SDS011;4343;53.648;10.098;2024-01-15T10:55:30;4.93;;;1.73;;
8610;SDS011;4343;53.648;10.098;2024-01-15T10:57:57;5.47;;;1.80;;
8610;SDS011;4343;53.648;10.098;2024-01-15T11:00:23;3.10;;;1.80;;
8610;SDS011;4343;53.648;10.098;2024-01-15T11:02:50;5.40;;;1.97;;
8610;SDS011;4343;53.648;10.098;2024-01-15T11:05:16;5.90;;;1.90;;
8610;SDS011;4343;53.648;10.098;2024-01-15T11:07:43;8.13;;;2.30;;
8610;SDS011;4343;53.648;10.098;2024-01-15T11:10:37;5.27;;;1.67;;
8610;SDS011;4343;53.648;10.098;2024-01-15T11:13:13;3.43;;;1.90;;
8610;SDS011;4343;53.648;10.098;2024-01-15T11:16:04;4.77;;;2.50;;
8610;SDS011;4343;53.648;10.098;2024-01-15T11:18:37;5.67;;;2.03;;
8610;SDS011;4343;53.648;10.098;2024-01-15T11:21:21;3.47;;;1.70;;
8610;SDS011;4343;53.648;10.098;2024-01-15T11:23:53;4.57;;;2.03;;
8610;SDS011;4343;53.648;10.098;2024-01-15T11:27:04;5.90;;;1.97;;
8610;SDS011;4343;53.648;10.098;2024-01-15T11:29:30;3.37;;;1.87;;
8610;SDS011;4343;53.648;10.098;2024-01-15T11:31:57;5.10;;;1.87;;
8610;SDS011;4343;53.648;10.098;2024-01-15T11:37:55;3.50;;;1.60;;
8610;SDS011;4343;53.648;10.098;2024-01-15T11:40:17;2.77;;;1.57;;
8610;SDS011;4343;53.648;10.098;2024-01-15T11:42:44;5.40;;;2.27;;
8610;SDS011;4343;53.648;10.098;2024-01-15T11:45:10;3.90;;;1.53;;
8610;SDS011;4343;53.648;10.098;2024-01-15T11:50:38;6.03;;;1.97;;
8610;SDS011;4343;53.648;10.098;2024-01-15T11:53:08;2.43;;;1.63;;
8610;SDS011;4343;53.648;10.098;2024-01-15T11:55:41;3.07;;;1.50;;
8610;SDS011;4343;53.648;10.098;2024-01-15T11:58:10;3.80;;;2.37;;
8610;SDS011;4343;53.648;10.098;2024-01-15T12:00:39;3.03;;;1.70;;
8610;SDS011;4343;53.648;10.098;2024-01-15T12:03:06;4.23;;;1.90;;
8610;SDS011;4343;53.648;10.098;2024-01-15T12:05:33;4.37;;;2.53;;
8610;SDS011;4343;53.648;10.098;2024-01-15T12:08:01;3.63;;;1.70;;
8610;SDS011;4343;53.648;10.098;2024-01-15T12:10:27;4.70;;;1.83;;
8610;SDS011;4343;53.648;10.098;2024-01-15T12:12:59;5.47;;;2.43;;
8610;SDS011;4343;53.648;10.098;2024-01-15T12:15:30;5.93;;;2.00;;
8610;SDS011;4343;53.648;10.098;2024-01-15T12:17:56;2.33;;;1.63;;
8610;SDS011;4343;53.648;10.098;2024-01-15T12:20:23;3.20;;;1.63;;
8610;SDS011;4343;53.648;10.098;2024-01-15T12:22:50;2.13;;;1.53;;
8610;SDS011;4343;53.648;10.098;2024-01-15T12:25:15;1.77;;;1.50;;
8610;SDS011;4343;53.648;10.098;2024-01-15T12:27:41;4.33;;;1.67;;
8610;SDS011;4343;53.648;10.098;2024-01-15T12:30:06;2.77;;;1.47;;
8610;SDS011;4343;53.648;10.098;2024-01-15T12:32:35;3.50;;;1.43;;
8610;SDS011;4343;53.648;10.098;2024-01-15T12:35:00;3.13;;;2.00;;
8610;SDS011;4343;53.648;10.098;2024-01-15T12:37:26;2.40;;;1.53;;
8610;SDS011;4343;53.648;10.098;2024-01-15T12:39:52;1.87;;;1.10;;
8610;SDS011;4343;53.648;10.098;2024-01-15T12:42:20;3.13;;;1.67;;
8610;SDS011;4343;53.648;10.098;2024-01-15T12:44:46;1.50;;;1.20;;
8610;SDS011;4343;53.648;10.098;2024-01-15T12:47:12;5.93;;;2.03;;
8610;SDS011;4343;53.648;10.098;2024-01-15T12:49:39;2.50;;;1.37;;
8610;SDS011;4343;53.648;10.098;2024-01-15T12:52:07;2.10;;;1.20;;
8610;SDS011;4343;53.648;10.098;2024-01-15T12:54:34;3.90;;;1.30;;
8610;SDS011;4343;53.648;10.098;2024-01-15T12:56:59;1.67;;;1.47;;
8610;SDS011;4343;53.648;10.098;2024-01-15T12:59:25;3.37;;;1.27;;
8610;SDS011;4343;53.648;10.098;2024-01-15T13:01:50;2.17;;;1.30;;
8610;SDS011;4343;53.648;10.098;2024-01-15T13:04:23;6.10;;;1.27;;
8610;SDS011;4343;53.648;10.098;2024-01-15T13:06:52;1.80;;;1.23;;
8610;SDS011;4343;53.648;10.098;2024-01-15T13:09:18;2.33;;;1.53;;
8610;SDS011;4343;53.648;10.098;2024-01-15T13:11:44;1.30;;;1.17;;
8610;SDS011;4343;53.648;10.098;2024-01-15T13:14:10;1.43;;;1.30;;
8610;SDS011;4343;53.648;10.098;2024-01-15T13:16:35;2.37;;;1.57;;
8610;SDS011;4343;53.648;10.098;2024-01-15T13:19:01;4.13;;;1.43;;
8610;SDS011;4343;53.648;10.098;2024-01-15T13:21:28;3.20;;;1.60;;
8610;SDS011;4343;53.648;10.098;2024-01-15T13:23:54;2.17;;;1.83;;
8610;SDS011;4343;53.648;10.098;2024-01-15T13:26:20;2.63;;;1.57;;
8610;SDS011;4343;53.648;10.098;2024-01-15T13:28:46;1.83;;;1.20;;
8610;SDS011;4343;53.648;10.098;2024-01-15T13:31:11;2.10;;;1.10;;
8610;SDS011;4343;53.648;10.098;2024-01-15T13:33:38;2.07;;;1.43;;
8610;SDS011;4343;53.648;10.098;2024-01-15T13:36:03;2.70;;;1.40;;
8610;SDS011;4343;53.648;10.098;2024-01-15T13:38:33;1.70;;;1.30;;
8610;SDS011;4343;53.648;10.098;2024-01-15T13:41:01;1.83;;;1.37;;
8610;SDS011;4343;53.648;10.098;2024-01-15T13:43:27;3.03;;;1.80;;
8610;SDS011;4343;53.648;10.098;2024-01-15T13:45:53;4.17;;;1.60;;
8610;SDS011;4343;53.648;10.098;2024-01-15T13:48:19;1.60;;;1.50;;
8610;SDS011;4343;53.648;10.098;2024-01-15T13:50:45;2.87;;;1.33;;
8610;SDS011;4343;53.648;10.098;2024-01-15T13:53:11;2.07;;;1.70;;
8610;SDS011;4343;53.648;10.098;2024-01-15T13:55:36;3.50;;;1.57;;
8610;SDS011;4343;53.648;10.098;2024-01-15T13:58:02;3.33;;;1.80;;
8610;SDS011;4343;53.648;10.098;2024-01-15T14:00:30;1.73;;;1.63;;
8610;SDS011;4343;53.648;10.098;2024-01-15T14:02:56;1.87;;;1.77;;
8610;SDS011;4343;53.648;10.098;2024-01-15T14:05:22;2.70;;;2.00;;
8610;SDS011;4343;53.648;10.098;2024-01-15T14:07:48;2.40;;;2.00;;
8610;SDS011;4343;53.648;10.098;2024-01-15T14:10:13;1.57;;;1.50;;
8610;SDS011;4343;53.648;10.098;2024-01-15T14:12:39;1.77;;;1.67;;
8610;SDS011;4343;53.648;10.098;2024-01-15T14:15:05;2.13;;;1.93;;
8610;SDS011;4343;53.648;10.098;2024-01-15T14:17:31;1.87;;;1.73;;
8610;SDS011;4343;53.648;10.098;2024-01-15T14:19:57;2.03;;;1.93;;
8610;SDS011;4343;53.648;10.098;2024-01-15T14:22:22;2.17;;;1.73;;
8610;SDS011;4343;53.648;10.098;2024-01-15T14:24:48;2.97;;;1.90;;
8610;SDS011;4343;53.648;10.098;2024-01-15T14:27:14;1.53;;;1.43;;
8610;SDS011;4343;53.648;10.098;2024-01-15T14:29:39;1.70;;;1.57;;
8610;SDS011;4343;53.648;10.098;2024-01-15T14:32:05;1.73;;;1.50;;
8610;SDS011;4343;53.648;10.098;2024-01-15T14:34:31;2.27;;;1.17;;
8610;SDS011;4343;53.648;10.098;2024-01-15T14:36:57;2.47;;;1.33;;
8610;SDS011;4343;53.648;10.098;2024-01-15T14:39:22;2.17;;;1.37;;
8610;SDS011;4343;53.648;10.098;2024-01-15T14:41:48;2.53;;;1.43;;
8610;SDS011;4343;53.648;10.098;2024-01-15T14:44:14;2.17;;;1.20;;
8610;SDS011;4343;53.648;10.098;2024-01-15T14:46:40;1.80;;;1.27;;
8610;SDS011;4343;53.648;10.098;2024-01-15T14:49:05;1.33;;;1.27;;
8610;SDS011;4343;53.648;10.098;2024-01-15T14:51:31;2.33;;;1.40;;
8610;SDS011;4343;53.648;10.098;2024-01-15T14:53:57;1.60;;;1.50;;
8610;SDS011;4343;53.648;10.098;2024-01-15T14:56:22;2.00;;;1.20;;
8610;SDS011;4343;53.648;10.098;2024-01-15T14:58:48;1.07;;;0.80;;